Aviation Digital Data Service (ADDS)

Output produced by METARs form (2325 UTC 23 March 2019)
found at http://www.aviationweather.gov/metar/data/
 
METAR text: RJNY 230529Z 12007KT 100V170 9999 FEW020 SCT045 14/07 Q1007 RMK 1CU020 3SC045 A2976
Conditions at: RJNY (SHIZUHAMA (JASDF, JP) observed 0529 UTC 23 March 2019
Temperature: 14.0°C (57°F)
Dewpoint: 7.0°C (45°F) [RH = 63%]
Pressure (altimeter): 29.73 inches Hg (1007.0 mb)
Winds: from the ESE (120 degrees) at 8 MPH (7 knots; 3.6 m/s)
Visibility: 6 or more miles (10+ km)
Ceiling: at least 12,000 feet AGL
Clouds: few clouds at 2000 feet AGL
scattered clouds at 4500 feet AGL
Weather: no significant weather observed at this time

METAR text: RJNY 221950Z VRB02KT 9999 FEW020 BKN030 BKN050 11/04 Q1009 RMK 1CU020 6CU030 5SC050 A2980
Conditions at: RJNY (SHIZUHAMA (JASDF, JP) observed 1950 UTC 22 March 2019
Temperature: 11.0°C (52°F)
Dewpoint: 4.0°C (39°F) [RH = 62%]
Pressure (altimeter): 29.79 inches Hg (1009.0 mb)
Winds: variable direction winds at 2 MPH (2 knots; 1.0 m/s)
Visibility: 6 or more miles (10+ km)
Ceiling: 3000 feet AGL
Clouds: few clouds at 2000 feet AGL
broken clouds at 3000 feet AGL
broken clouds at 5000 feet AGL
Weather: no significant weather observed at this time

METAR text: RJNY 221611Z 27003KT 240V310 9999 FEW020 BKN025 BKN/// 12/05 Q1008 RMK 1CU020 6CU025 A2977
Conditions at: RJNY (SHIZUHAMA (JASDF, JP) observed 1611 UTC 22 March 2019
Temperature: 12.0°C (54°F)
Dewpoint: 5.0°C (41°F) [RH = 62%]
Pressure (altimeter): 29.76 inches Hg (1008.0 mb)
Winds: from the W (270 degrees) at 3 MPH (3 knots; 1.5 m/s)
Visibility: 6 or more miles (10+ km)
Ceiling: 2500 feet AGL
Clouds: few clouds at 2000 feet AGL
broken clouds at 2500 feet AGL
Weather: no significant weather observed at this time

METAR text: RJNY 221347Z 28005KT 9999 FEW020 BKN035 BKN/// 12/04 Q1006 RMK 1CU020 5SC035 A2973
Conditions at: RJNY (SHIZUHAMA (JASDF, JP) observed 1347 UTC 22 March 2019
Temperature: 12.0°C (54°F)
Dewpoint: 4.0°C (39°F) [RH = 58%]
Pressure (altimeter): 29.70 inches Hg (1006.0 mb)
Winds: from the W (280 degrees) at 6 MPH (5 knots; 2.6 m/s)
Visibility: 6 or more miles (10+ km)
Ceiling: 3500 feet AGL
Clouds: few clouds at 2000 feet AGL
broken clouds at 3500 feet AGL
Weather: no significant weather observed at this time